sensor_id;sensor_type;location;lat;lon;timestamp;temperature;humidity
913;DHT22;443;51.448;7.028;2023-05-10T00:01:14;16.60;82.80
913;DHT22;443;51.448;7.028;2023-05-10T00:03:40;16.60;83.00
913;DHT22;443;51.448;7.028;2023-05-10T00:06:08;16.60;83.50
913;DHT22;443;51.448;7.028;2023-05-10T00:08:35;16.60;82.70
913;DHT22;443;51.448;7.028;2023-05-10T00:11:02;16.60;82.60
913;DHT22;443;51.448;7.028;2023-05-10T00:13:29;16.60;82.80
913;DHT22;443;51.448;7.028;2023-05-10T00:15:55;16.60;84.20
913;DHT22;443;51.448;7.028;2023-05-10T00:18:22;16.60;83.30
913;DHT22;443;51.448;7.028;2023-05-10T00:20:49;16.60;83.60
913;DHT22;443;51.448;7.028;2023-05-10T00:23:17;16.60;83.30
913;DHT22;443;51.448;7.028;2023-05-10T00:25:44;16.60;83.40
913;DHT22;443;51.448;7.028;2023-05-10T00:28:11;16.60;82.70
913;DHT22;443;51.448;7.028;2023-05-10T00:30:38;16.60;83.00
913;DHT22;443;51.448;7.028;2023-05-10T00:33:05;16.60;83.90
913;DHT22;443;51.448;7.028;2023-05-10T00:35:32;16.60;83.30
913;DHT22;443;51.448;7.028;2023-05-10T00:37:59;16.60;84.30
913;DHT22;443;51.448;7.028;2023-05-10T00:40:27;16.60;83.60
913;DHT22;443;51.448;7.028;2023-05-10T00:42:54;16.50;83.40
913;DHT22;443;51.448;7.028;2023-05-10T00:45:21;16.60;83.60
913;DHT22;443;51.448;7.028;2023-05-10T00:47:47;16.60;83.80
913;DHT22;443;51.448;7.028;2023-05-10T00:50:15;16.60;83.70
913;DHT22;443;51.448;7.028;2023-05-10T00:52:42;16.60;84.10
913;DHT22;443;51.448;7.028;2023-05-10T00:55:10;16.60;83.00
913;DHT22;443;51.448;7.028;2023-05-10T00:57:38;16.50;82.50
913;DHT22;443;51.448;7.028;2023-05-10T01:00:07;16.60;83.20
913;DHT22;443;51.448;7.028;2023-05-10T01:02:34;16.60;82.50
913;DHT22;443;51.448;7.028;2023-05-10T01:05:02;16.50;82.30
913;DHT22;443;51.448;7.028;2023-05-10T01:07:29;16.50;82.80
913;DHT22;443;51.448;7.028;2023-05-10T01:09:56;16.50;82.90
913;DHT22;443;51.448;7.028;2023-05-10T01:12:23;16.50;82.70
913;DHT22;443;51.448;7.028;2023-05-10T01:14:52;16.50;82.30
913;DHT22;443;51.448;7.028;2023-05-10T01:17:19;16.50;83.20
913;DHT22;443;51.448;7.028;2023-05-10T01:19:47;16.50;82.90
913;DHT22;443;51.448;7.028;2023-05-10T01:22:32;16.50;82.50
913;DHT22;443;51.448;7.028;2023-05-10T01:28:17;16.50;82.90
913;DHT22;443;51.448;7.028;2023-05-10T01:31:06;16.50;82.80
913;DHT22;443;51.448;7.028;2023-05-10T01:33:39;16.50;83.20
913;DHT22;443;51.448;7.028;2023-05-10T01:36:13;16.40;82.90
913;DHT22;443;51.448;7.028;2023-05-10T01:38:44;16.50;83.00
913;DHT22;443;51.448;7.028;2023-05-10T01:41:18;16.50;83.00
913;DHT22;443;51.448;7.028;2023-05-10T01:43:53;16.50;82.90
913;DHT22;443;51.448;7.028;2023-05-10T01:46:27;16.50;83.10
913;DHT22;443;51.448;7.028;2023-05-10T01:48:58;16.50;82.80
913;DHT22;443;51.448;7.028;2023-05-10T01:51:29;16.40;82.90
913;DHT22;443;51.448;7.028;2023-05-10T01:54:00;16.40;82.70
913;DHT22;443;51.448;7.028;2023-05-10T01:56:30;16.40;83.00
913;DHT22;443;51.448;7.028;2023-05-10T01:58:59;16.40;82.50
913;DHT22;443;51.448;7.028;2023-05-10T02:01:26;16.40;82.50
913;DHT22;443;51.448;7.028;2023-05-10T02:03:56;16.40;83.20
913;DHT22;443;51.448;7.028;2023-05-10T02:06:24;16.40;82.90
913;DHT22;443;51.448;7.028;2023-05-10T02:08:53;16.40;82.70
913;DHT22;443;51.448;7.028;2023-05-10T02:11:20;16.40;82.90
913;DHT22;443;51.448;7.028;2023-05-10T02:13:48;16.40;83.00
913;DHT22;443;51.448;7.028;2023-05-10T02:16:16;16.40;82.90
913;DHT22;443;51.448;7.028;2023-05-10T02:18:44;16.40;83.00
913;DHT22;443;51.448;7.028;2023-05-10T02:21:14;16.40;83.60
913;DHT22;443;51.448;7.028;2023-05-10T02:23:43;16.40;82.80
913;DHT22;443;51.448;7.028;2023-05-10T02:26:10;16.40;83.10
913;DHT22;443;51.448;7.028;2023-05-10T02:28:40;16.40;83.20
913;DHT22;443;51.448;7.028;2023-05-10T02:31:08;16.40;82.80
913;DHT22;443;51.448;7.028;2023-05-10T02:33:37;16.40;83.90
913;DHT22;443;51.448;7.028;2023-05-10T02:36:06;16.40;83.10
913;DHT22;443;51.448;7.028;2023-05-10T02:38:35;16.40;82.90
913;DHT22;443;51.448;7.028;2023-05-10T02:41:04;16.40;82.90
913;DHT22;443;51.448;7.028;2023-05-10T02:43:32;16.40;82.90
913;DHT22;443;51.448;7.028;2023-05-10T02:45:59;16.40;82.70
913;DHT22;443;51.448;7.028;2023-05-10T02:48:26;16.40;83.30
913;DHT22;443;51.448;7.028;2023-05-10T02:50:55;16.40;83.10
913;DHT22;443;51.448;7.028;2023-05-10T02:53:26;16.40;83.00
913;DHT22;443;51.448;7.028;2023-05-10T02:55:59;16.40;83.40
913;DHT22;443;51.448;7.028;2023-05-10T02:58:27;16.40;83.50
913;DHT22;443;51.448;7.028;2023-05-10T03:00:54;16.40;83.60
913;DHT22;443;51.448;7.028;2023-05-10T03:03:20;16.40;83.50
913;DHT22;443;51.448;7.028;2023-05-10T03:05:47;16.40;83.20
913;DHT22;443;51.448;7.028;2023-05-10T03:08:14;16.40;83.20
913;DHT22;443;51.448;7.028;2023-05-10T03:10:47;16.40;83.10
913;DHT22;443;51.448;7.028;2023-05-10T03:13:25;16.40;83.00
913;DHT22;443;51.448;7.028;2023-05-10T03:15:59;16.40;83.20
913;DHT22;443;51.448;7.028;2023-05-10T03:18:31;16.40;83.50
913;DHT22;443;51.448;7.028;2023-05-10T03:21:02;16.40;83.50
913;DHT22;443;51.448;7.028;2023-05-10T03:23:34;16.40;83.20
913;DHT22;443;51.448;7.028;2023-05-10T03:26:02;16.40;83.50
913;DHT22;443;51.448;7.028;2023-05-10T03:28:33;16.40;83.20
913;DHT22;443;51.448;7.028;2023-05-10T03:31:00;16.40;83.10
913;DHT22;443;51.448;7.028;2023-05-10T03:33:28;16.40;83.60
913;DHT22;443;51.448;7.028;2023-05-10T03:35:55;16.40;82.70
913;DHT22;443;51.448;7.028;2023-05-10T03:38:22;16.40;82.90
913;DHT22;443;51.448;7.028;2023-05-10T03:40:48;16.40;83.50
913;DHT22;443;51.448;7.028;2023-05-10T03:43:15;16.30;83.30
913;DHT22;443;51.448;7.028;2023-05-10T03:45:43;16.30;83.40
913;DHT22;443;51.448;7.028;2023-05-10T03:48:10;16.30;83.60
913;DHT22;443;51.448;7.028;2023-05-10T03:50:39;16.30;83.30
913;DHT22;443;51.448;7.028;2023-05-10T03:53:05;16.30;83.40
913;DHT22;443;51.448;7.028;2023-05-10T03:55:32;16.30;83.60
913;DHT22;443;51.448;7.028;2023-05-10T03:58:01;16.30;84.10
913;DHT22;443;51.448;7.028;2023-05-10T04:00:28;16.30;83.40
913;DHT22;443;51.448;7.028;2023-05-10T04:02:56;16.30;83.50
913;DHT22;443;51.448;7.028;2023-05-10T04:05:23;16.30;83.40
913;DHT22;443;51.448;7.028;2023-05-10T04:07:50;16.30;83.90
913;DHT22;443;51.448;7.028;2023-05-10T04:10:17;16.30;83.40
913;DHT22;443;51.448;7.028;2023-05-10T04:12:44;16.30;83.30
913;DHT22;443;51.448;7.028;2023-05-10T04:15:11;16.30;83.80
913;DHT22;443;51.448;7.028;2023-05-10T04:17:37;16.30;83.90
913;DHT22;443;51.448;7.028;2023-05-10T04:20:07;16.30;83.90
913;DHT22;443;51.448;7.028;2023-05-10T04:22:34;16.30;83.30
913;DHT22;443;51.448;7.028;2023-05-10T04:25:00;16.30;83.70
913;DHT22;443;51.448;7.028;2023-05-10T04:27:27;16.30;83.90
913;DHT22;443;51.448;7.028;2023-05-10T04:29:54;16.30;84.20
913;DHT22;443;51.448;7.028;2023-05-10T04:32:21;16.30;83.90
913;DHT22;443;51.448;7.028;2023-05-10T04:34:47;16.30;84.20
913;DHT22;443;51.448;7.028;2023-05-10T04:37:16;16.30;83.10
913;DHT22;443;51.448;7.028;2023-05-10T04:39:43;16.30;84.50
913;DHT22;443;51.448;7.028;2023-05-10T04:42:09;16.30;83.90
913;DHT22;443;51.448;7.028;2023-05-10T04:44:36;16.30;84.20
913;DHT22;443;51.448;7.028;2023-05-10T04:47:04;16.40;83.90
913;DHT22;443;51.448;7.028;2023-05-10T04:49:30;16.30;83.00
913;DHT22;443;51.448;7.028;2023-05-10T04:51:57;16.30;82.80
913;DHT22;443;51.448;7.028;2023-05-10T04:54:25;16.30;83.40
913;DHT22;443;51.448;7.028;2023-05-10T04:56:52;16.30;83.80
913;DHT22;443;51.448;7.028;2023-05-10T04:59:19;16.30;83.80
913;DHT22;443;51.448;7.028;2023-05-10T05:01:46;16.30;83.70
913;DHT22;443;51.448;7.028;2023-05-10T05:04:12;16.30;82.90
913;DHT22;443;51.448;7.028;2023-05-10T05:06:40;16.30;83.30
913;DHT22;443;51.448;7.028;2023-05-10T05:09:06;16.30;84.00
913;DHT22;443;51.448;7.028;2023-05-10T05:11:34;16.30;84.20
913;DHT22;443;51.448;7.028;2023-05-10T05:14:01;16.30;83.80
913;DHT22;443;51.448;7.028;2023-05-10T05:16:30;16.40;84.00
913;DHT22;443;51.448;7.028;2023-05-10T05:18:57;16.30;83.70
913;DHT22;443;51.448;7.028;2023-05-10T05:21:23;16.30;83.90
913;DHT22;443;51.448;7.028;2023-05-10T05:23:52;16.30;83.60
913;DHT22;443;51.448;7.028;2023-05-10T05:26:18;16.30;83.80
913;DHT22;443;51.448;7.028;2023-05-10T05:28:47;16.30;83.60
913;DHT22;443;51.448;7.028;2023-05-10T05:31:14;16.30;83.80
913;DHT22;443;51.448;7.028;2023-05-10T05:33:40;16.40;84.00
913;DHT22;443;51.448;7.028;2023-05-10T05:36:07;16.30;83.70
913;DHT22;443;51.448;7.028;2023-05-10T05:38:34;16.40;83.90
913;DHT22;443;51.448;7.028;2023-05-10T05:41:01;16.40;83.80
913;DHT22;443;51.448;7.028;2023-05-10T05:43:28;16.40;82.90
913;DHT22;443;51.448;7.028;2023-05-10T05:45:56;16.40;83.20
913;DHT22;443;51.448;7.028;2023-05-10T05:48:24;16.40;83.60
913;DHT22;443;51.448;7.028;2023-05-10T05:50:54;16.40;83.40
913;DHT22;443;51.448;7.028;2023-05-10T05:53:21;16.40;83.30
913;DHT22;443;51.448;7.028;2023-05-10T05:55:52;16.30;83.80
913;DHT22;443;51.448;7.028;2023-05-10T05:58:19;16.40;83.90
913;DHT22;443;51.448;7.028;2023-05-10T06:00:46;16.30;83.60
913;DHT22;443;51.448;7.028;2023-05-10T06:03:14;16.40;83.30
913;DHT22;443;51.448;7.028;2023-05-10T06:05:41;16.40;83.80
913;DHT22;443;51.448;7.028;2023-05-10T06:08:08;16.40;83.50
913;DHT22;443;51.448;7.028;2023-05-10T06:10:35;16.40;83.30
913;DHT22;443;51.448;7.028;2023-05-10T06:13:02;16.40;82.90
913;DHT22;443;51.448;7.028;2023-05-10T06:15:28;16.40;83.30
913;DHT22;443;51.448;7.028;2023-05-10T06:17:58;16.40;82.80
913;DHT22;443;51.448;7.028;2023-05-10T06:20:26;16.40;82.70
913;DHT22;443;51.448;7.028;2023-05-10T06:22:53;16.40;82.50
913;DHT22;443;51.448;7.028;2023-05-10T06:25:20;16.40;82.50
913;DHT22;443;51.448;7.028;2023-05-10T06:27:46;16.40;82.40
913;DHT22;443;51.448;7.028;2023-05-10T06:30:13;16.50;82.90
913;DHT22;443;51.448;7.028;2023-05-10T06:32:41;16.40;82.60
913;DHT22;443;51.448;7.028;2023-05-10T06:35:09;16.40;83.50
913;DHT22;443;51.448;7.028;2023-05-10T06:37:37;16.50;83.70
913;DHT22;443;51.448;7.028;2023-05-10T06:40:05;16.50;84.10
913;DHT22;443;51.448;7.028;2023-05-10T06:42:32;16.50;83.30
913;DHT22;443;51.448;7.028;2023-05-10T06:44:59;16.50;82.70
913;DHT22;443;51.448;7.028;2023-05-10T06:47:26;16.50;82.70
913;DHT22;443;51.448;7.028;2023-05-10T06:49:53;16.50;82.40
913;DHT22;443;51.448;7.028;2023-05-10T06:52:19;16.50;82.40
913;DHT22;443;51.448;7.028;2023-05-10T06:54:47;16.50;82.90
913;DHT22;443;51.448;7.028;2023-05-10T06:57:14;16.50;82.70
913;DHT22;443;51.448;7.028;2023-05-10T06:59:41;16.50;82.90
913;DHT22;443;51.448;7.028;2023-05-10T07:02:08;16.50;82.60
913;DHT22;443;51.448;7.028;2023-05-10T07:04:34;16.50;82.40
913;DHT22;443;51.448;7.028;2023-05-10T07:07:01;16.50;82.90
913;DHT22;443;51.448;7.028;2023-05-10T07:09:28;16.50;82.70
913;DHT22;443;51.448;7.028;2023-05-10T07:11:56;16.60;83.30
913;DHT22;443;51.448;7.028;2023-05-10T07:14:23;16.60;82.50
913;DHT22;443;51.448;7.028;2023-05-10T07:16:50;16.60;82.70
913;DHT22;443;51.448;7.028;2023-05-10T07:19:17;16.60;82.80
913;DHT22;443;51.448;7.028;2023-05-10T07:21:44;16.60;82.40
913;DHT22;443;51.448;7.028;2023-05-10T07:24:10;16.70;82.30
913;DHT22;443;51.448;7.028;2023-05-10T07:26:37;16.70;82.30
913;DHT22;443;51.448;7.028;2023-05-10T07:29:05;16.70;82.30
913;DHT22;443;51.448;7.028;2023-05-10T07:31:32;16.70;82.10
913;DHT22;443;51.448;7.028;2023-05-10T07:33:59;16.70;82.30
913;DHT22;443;51.448;7.028;2023-05-10T07:36:26;16.70;82.20
913;DHT22;443;51.448;7.028;2023-05-10T07:38:53;16.70;82.00
913;DHT22;443;51.448;7.028;2023-05-10T07:41:20;16.70;81.90
913;DHT22;443;51.448;7.028;2023-05-10T07:43:47;16.70;81.80
913;DHT22;443;51.448;7.028;2023-05-10T07:46:15;16.70;81.60
913;DHT22;443;51.448;7.028;2023-05-10T07:48:42;16.70;81.90
913;DHT22;443;51.448;7.028;2023-05-10T07:51:09;16.70;82.00
913;DHT22;443;51.448;7.028;2023-05-10T07:53:36;16.70;82.00
913;DHT22;443;51.448;7.028;2023-05-10T07:56:22;16.70;81.90
913;DHT22;443;51.448;7.028;2023-05-10T07:58:50;16.70;81.80
913;DHT22;443;51.448;7.028;2023-05-10T08:01:18;16.70;81.80
913;DHT22;443;51.448;7.028;2023-05-10T08:03:45;16.70;82.00
913;DHT22;443;51.448;7.028;2023-05-10T08:06:12;16.70;82.60
913;DHT22;443;51.448;7.028;2023-05-10T08:08:38;16.70;82.30
913;DHT22;443;51.448;7.028;2023-05-10T08:11:05;16.70;82.20
913;DHT22;443;51.448;7.028;2023-05-10T08:13:32;16.70;82.30
913;DHT22;443;51.448;7.028;2023-05-10T08:15:59;16.70;82.00
913;DHT22;443;51.448;7.028;2023-05-10T08:18:27;16.70;82.50
913;DHT22;443;51.448;7.028;2023-05-10T08:20:54;16.70;82.00
913;DHT22;443;51.448;7.028;2023-05-10T08:23:20;16.70;82.00
913;DHT22;443;51.448;7.028;2023-05-10T08:25:47;16.70;82.30
913;DHT22;443;51.448;7.028;2023-05-10T08:28:14;16.70;82.30
913;DHT22;443;51.448;7.028;2023-05-10T08:30:41;16.70;82.40
913;DHT22;443;51.448;7.028;2023-05-10T08:33:07;16.70;82.00
913;DHT22;443;51.448;7.028;2023-05-10T08:35:35;16.70;81.80
913;DHT22;443;51.448;7.028;2023-05-10T08:38:02;16.70;81.80
913;DHT22;443;51.448;7.028;2023-05-10T08:40:29;16.70;82.00
913;DHT22;443;51.448;7.028;2023-05-10T08:43:01;16.80;82.20
913;DHT22;443;51.448;7.028;2023-05-10T08:45:32;16.80;82.00
913;DHT22;443;51.448;7.028;2023-05-10T08:48:01;16.80;81.60
913;DHT22;443;51.448;7.028;2023-05-10T08:50:29;16.70;81.80
913;DHT22;443;51.448;7.028;2023-05-10T08:53:00;16.80;82.00
913;DHT22;443;51.448;7.028;2023-05-10T08:55:32;16.80;82.00
913;DHT22;443;51.448;7.028;2023-05-10T08:57:59;16.80;81.80
913;DHT22;443;51.448;7.028;2023-05-10T09:00:27;16.80;81.80
913;DHT22;443;51.448;7.028;2023-05-10T09:02:54;16.80;81.60
913;DHT22;443;51.448;7.028;2023-05-10T09:05:21;16.80;81.50
913;DHT22;443;51.448;7.028;2023-05-10T09:07:48;16.80;81.60
913;DHT22;443;51.448;7.028;2023-05-10T09:10:16;16.80;81.80
913;DHT22;443;51.448;7.028;2023-05-10T09:12:43;16.80;81.60
913;DHT22;443;51.448;7.028;2023-05-10T09:15:11;16.80;81.30
913;DHT22;443;51.448;7.028;2023-05-10T09:17:40;16.80;81.60
913;DHT22;443;51.448;7.028;2023-05-10T09:20:07;16.80;81.50
913;DHT22;443;51.448;7.028;2023-05-10T09:22:34;16.80;81.20
913;DHT22;443;51.448;7.028;2023-05-10T09:25:06;16.80;81.30
913;DHT22;443;51.448;7.028;2023-05-10T09:27:35;16.80;81.30
913;DHT22;443;51.448;7.028;2023-05-10T09:30:02;16.90;81.30
913;DHT22;443;51.448;7.028;2023-05-10T09:32:39;16.90;81.20
913;DHT22;443;51.448;7.028;2023-05-10T09:35:07;16.90;81.30
913;DHT22;443;51.448;7.028;2023-05-10T09:37:34;16.90;81.30
913;DHT22;443;51.448;7.028;2023-05-10T09:40:04;16.80;81.10
913;DHT22;443;51.448;7.028;2023-05-10T09:42:31;16.90;81.20
913;DHT22;443;51.448;7.028;2023-05-10T09:45:02;16.90;81.00
913;DHT22;443;51.448;7.028;2023-05-10T09:47:31;16.80;80.70
913;DHT22;443;51.448;7.028;2023-05-10T09:49:58;16.80;80.80
913;DHT22;443;51.448;7.028;2023-05-10T09:52:29;16.80;80.70
913;DHT22;443;51.448;7.028;2023-05-10T09:54:55;16.80;80.70
913;DHT22;443;51.448;7.028;2023-05-10T09:57:23;16.80;80.40
913;DHT22;443;51.448;7.028;2023-05-10T09:59:50;16.80;80.30
913;DHT22;443;51.448;7.028;2023-05-10T10:02:21;16.80;80.20
913;DHT22;443;51.448;7.028;2023-05-10T10:04:55;16.80;80.50
913;DHT22;443;51.448;7.028;2023-05-10T10:07:23;16.80;80.20
913;DHT22;443;51.448;7.028;2023-05-10T10:09:51;16.80;80.40
913;DHT22;443;51.448;7.028;2023-05-10T10:12:18;16.90;80.50
913;DHT22;443;51.448;7.028;2023-05-10T10:14:46;16.90;80.40
913;DHT22;443;51.448;7.028;2023-05-10T10:17:13;16.90;80.10
913;DHT22;443;51.448;7.028;2023-05-10T10:19:41;16.90;80.30
913;DHT22;443;51.448;7.028;2023-05-10T10:22:08;16.90;80.10
913;DHT22;443;51.448;7.028;2023-05-10T10:24:37;16.90;80.20
913;DHT22;443;51.448;7.028;2023-05-10T10:27:13;16.90;80.10
913;DHT22;443;51.448;7.028;2023-05-10T10:29:58;16.90;80.20
913;DHT22;443;51.448;7.028;2023-05-10T10:32:33;16.90;80.00
913;DHT22;443;51.448;7.028;2023-05-10T10:35:04;16.90;79.90
913;DHT22;443;51.448;7.028;2023-05-10T10:37:44;16.90;80.10
913;DHT22;443;51.448;7.028;2023-05-10T10:40:28;16.90;80.00
913;DHT22;443;51.448;7.028;2023-05-10T10:42:55;16.90;80.20
913;DHT22;443;51.448;7.028;2023-05-10T10:45:23;16.90;80.20
913;DHT22;443;51.448;7.028;2023-05-10T10:50:44;16.80;80.20
913;DHT22;443;51.448;7.028;2023-05-10T10:53:12;16.80;80.30
913;DHT22;443;51.448;7.028;2023-05-10T10:55:46;16.80;80.20
913;DHT22;443;51.448;7.028;2023-05-10T10:58:29;16.80;80.20
913;DHT22;443;51.448;7.028;2023-05-10T11:01:10;16.90;81.00
913;DHT22;443;51.448;7.028;2023-05-10T11:03:37;16.90;79.90
913;DHT22;443;51.448;7.028;2023-05-10T11:06:06;16.90;79.80
913;DHT22;443;51.448;7.028;2023-05-10T11:08:34;16.90;80.00
913;DHT22;443;51.448;7.028;2023-05-10T11:11:06;16.90;80.00
913;DHT22;443;51.448;7.028;2023-05-10T11:13:39;16.90;80.00
913;DHT22;443;51.448;7.028;2023-05-10T11:16:17;16.90;79.90
913;DHT22;443;51.448;7.028;2023-05-10T11:19:01;16.90;79.90
913;DHT22;443;51.448;7.028;2023-05-10T11:21:30;16.90;79.90
913;DHT22;443;51.448;7.028;2023-05-10T11:23:58;16.90;79.80
913;DHT22;443;51.448;7.028;2023-05-10T11:26:30;16.90;79.90
913;DHT22;443;51.448;7.028;2023-05-10T11:28:57;16.90;79.80
913;DHT22;443;51.448;7.028;2023-05-10T11:31:26;16.90;79.90
913;DHT22;443;51.448;7.028;2023-05-10T11:33:54;16.90;80.00
913;DHT22;443;51.448;7.028;2023-05-10T11:36:23;16.90;80.10
913;DHT22;443;51.448;7.028;2023-05-10T11:38:52;16.90;80.10
913;DHT22;443;51.448;7.028;2023-05-10T11:41:20;16.90;80.00
913;DHT22;443;51.448;7.028;2023-05-10T11:43:50;16.90;80.30
913;DHT22;443;51.448;7.028;2023-05-10T11:46:18;16.80;80.10
913;DHT22;443;51.448;7.028;2023-05-10T11:48:45;16.80;80.10
913;DHT22;443;51.448;7.028;2023-05-10T11:51:13;16.80;80.20
913;DHT22;443;51.448;7.028;2023-05-10T11:53:40;16.80;80.00
913;DHT22;443;51.448;7.028;2023-05-10T11:56:09;16.80;80.00
913;DHT22;443;51.448;7.028;2023-05-10T11:58:38;16.90;80.10
913;DHT22;443;51.448;7.028;2023-05-10T12:01:07;16.90;80.20
913;DHT22;443;51.448;7.028;2023-05-10T12:03:35;16.90;80.10
913;DHT22;443;51.448;7.028;2023-05-10T12:06:02;16.90;80.20
913;DHT22;443;51.448;7.028;2023-05-10T12:08:30;16.90;80.10
913;DHT22;443;51.448;7.028;2023-05-10T12:11:04;16.90;80.10
913;DHT22;443;51.448;7.028;2023-05-10T12:13:37;16.90;80.00
913;DHT22;443;51.448;7.028;2023-05-10T12:16:13;16.90;79.90
913;DHT22;443;51.448;7.028;2023-05-10T12:18:40;16.90;79.80
913;DHT22;443;51.448;7.028;2023-05-10T12:21:09;16.90;80.00
913;DHT22;443;51.448;7.028;2023-05-10T12:23:36;16.90;79.80
913;DHT22;443;51.448;7.028;2023-05-10T12:26:04;17.00;80.00
913;DHT22;443;51.448;7.028;2023-05-10T12:28:32;16.90;79.70
913;DHT22;443;51.448;7.028;2023-05-10T12:31:00;17.00;79.70
913;DHT22;443;51.448;7.028;2023-05-10T12:33:35;17.00;79.70
913;DHT22;443;51.448;7.028;2023-05-10T12:36:02;17.00;79.70
913;DHT22;443;51.448;7.028;2023-05-10T12:38:32;17.00;79.70
913;DHT22;443;51.448;7.028;2023-05-10T12:41:00;17.00;79.60
913;DHT22;443;51.448;7.028;2023-05-10T12:43:28;17.00;79.40
913;DHT22;443;51.448;7.028;2023-05-10T12:45:56;17.00;79.60
913;DHT22;443;51.448;7.028;2023-05-10T12:48:24;17.00;79.20
913;DHT22;443;51.448;7.028;2023-05-10T12:50:51;17.00;79.40
913;DHT22;443;51.448;7.028;2023-05-10T12:53:18;17.00;79.70
913;DHT22;443;51.448;7.028;2023-05-10T12:55:45;17.00;79.10
913;DHT22;443;51.448;7.028;2023-05-10T12:58:11;17.00;79.10
913;DHT22;443;51.448;7.028;2023-05-10T13:00:38;17.00;78.70
913;DHT22;443;51.448;7.028;2023-05-10T13:03:06;17.00;79.10
913;DHT22;443;51.448;7.028;2023-05-10T13:05:33;17.00;79.10
913;DHT22;443;51.448;7.028;2023-05-10T13:08:00;17.00;79.50
913;DHT22;443;51.448;7.028;2023-05-10T13:10:27;17.00;79.10
913;DHT22;443;51.448;7.028;2023-05-10T13:12:54;17.00;78.60
913;DHT22;443;51.448;7.028;2023-05-10T13:15:21;17.10;79.10
913;DHT22;443;51.448;7.028;2023-05-10T13:17:48;17.10;78.80
913;DHT22;443;51.448;7.028;2023-05-10T13:20:16;17.10;78.70
913;DHT22;443;51.448;7.028;2023-05-10T13:22:43;17.10;79.10
913;DHT22;443;51.448;7.028;2023-05-10T13:25:10;17.10;79.20
913;DHT22;443;51.448;7.028;2023-05-10T13:27:38;17.10;78.80
913;DHT22;443;51.448;7.028;2023-05-10T13:30:06;17.10;78.40
913;DHT22;443;51.448;7.028;2023-05-10T13:32:33;17.20;78.30
913;DHT22;443;51.448;7.028;2023-05-10T13:35:00;17.20;78.00
913;DHT22;443;51.448;7.028;2023-05-10T13:37:29;17.20;78.70
913;DHT22;443;51.448;7.028;2023-05-10T13:39:56;17.20;78.00
913;DHT22;443;51.448;7.028;2023-05-10T13:42:23;17.30;77.80
913;DHT22;443;51.448;7.028;2023-05-10T13:44:50;17.30;78.70
913;DHT22;443;51.448;7.028;2023-05-10T13:47:17;17.20;78.80
913;DHT22;443;51.448;7.028;2023-05-10T13:49:44;17.20;78.20
913;DHT22;443;51.448;7.028;2023-05-10T13:52:10;17.30;78.10
913;DHT22;443;51.448;7.028;2023-05-10T13:54:39;17.20;78.20
913;DHT22;443;51.448;7.028;2023-05-10T13:57:05;17.30;78.00
913;DHT22;443;51.448;7.028;2023-05-10T13:59:33;17.20;78.50
913;DHT22;443;51.448;7.028;2023-05-10T14:02:00;17.20;78.90
913;DHT22;443;51.448;7.028;2023-05-10T14:04:27;17.30;78.80
913;DHT22;443;51.448;7.028;2023-05-10T14:06:54;17.50;78.00
913;DHT22;443;51.448;7.028;2023-05-10T14:09:21;17.60;77.60
913;DHT22;443;51.448;7.028;2023-05-10T14:11:49;17.70;77.00
913;DHT22;443;51.448;7.028;2023-05-10T14:14:16;17.90;76.30
913;DHT22;443;51.448;7.028;2023-05-10T14:16:44;18.00;75.90
913;DHT22;443;51.448;7.028;2023-05-10T14:19:11;17.90;76.00
913;DHT22;443;51.448;7.028;2023-05-10T14:21:37;17.80;77.40
913;DHT22;443;51.448;7.028;2023-05-10T14:24:05;17.70;76.40
913;DHT22;443;51.448;7.028;2023-05-10T14:26:32;17.70;77.10
913;DHT22;443;51.448;7.028;2023-05-10T14:29:01;17.60;77.20
913;DHT22;443;51.448;7.028;2023-05-10T14:31:28;17.60;77.20
913;DHT22;443;51.448;7.028;2023-05-10T14:33:55;17.60;77.40
913;DHT22;443;51.448;7.028;2023-05-10T14:36:22;17.50;77.50
913;DHT22;443;51.448;7.028;2023-05-10T14:38:49;17.50;77.60
913;DHT22;443;51.448;7.028;2023-05-10T14:41:16;17.60;77.30
913;DHT22;443;51.448;7.028;2023-05-10T14:43:43;17.60;77.30
913;DHT22;443;51.448;7.028;2023-05-10T14:46:11;17.60;77.50
913;DHT22;443;51.448;7.028;2023-05-10T14:48:38;17.60;77.50
913;DHT22;443;51.448;7.028;2023-05-10T14:51:04;17.60;77.10
913;DHT22;443;51.448;7.028;2023-05-10T14:53:31;17.70;77.00
913;DHT22;443;51.448;7.028;2023-05-10T14:55:58;17.70;76.90
913;DHT22;443;51.448;7.028;2023-05-10T14:58:26;17.60;77.10
913;DHT22;443;51.448;7.028;2023-05-10T15:00:53;17.60;77.30
913;DHT22;443;51.448;7.028;2023-05-10T15:03:21;17.60;77.50
913;DHT22;443;51.448;7.028;2023-05-10T15:05:48;17.60;77.40
913;DHT22;443;51.448;7.028;2023-05-10T15:08:15;17.60;77.10
913;DHT22;443;51.448;7.028;2023-05-10T15:10:41;17.60;77.20
913;DHT22;443;51.448;7.028;2023-05-10T15:13:08;17.50;77.50
913;DHT22;443;51.448;7.028;2023-05-10T15:15:35;17.50;77.70
913;DHT22;443;51.448;7.028;2023-05-10T15:18:01;17.50;77.80
913;DHT22;443;51.448;7.028;2023-05-10T15:20:30;17.50;77.70
913;DHT22;443;51.448;7.028;2023-05-10T15:22:56;17.50;77.70
913;DHT22;443;51.448;7.028;2023-05-10T15:25:23;17.50;77.60
913;DHT22;443;51.448;7.028;2023-05-10T15:27:50;17.50;77.60
913;DHT22;443;51.448;7.028;2023-05-10T15:30:17;17.50;77.90
913;DHT22;443;51.448;7.028;2023-05-10T15:32:44;17.40;77.80
913;DHT22;443;51.448;7.028;2023-05-10T15:35:10;17.50;77.90
913;DHT22;443;51.448;7.028;2023-05-10T15:37:39;17.40;78.00
913;DHT22;443;51.448;7.028;2023-05-10T15:40:06;17.40;78.00
913;DHT22;443;51.448;7.028;2023-05-10T15:42:33;17.40;78.10
913;DHT22;443;51.448;7.028;2023-05-10T15:45:00;17.40;78.00
913;DHT22;443;51.448;7.028;2023-05-10T15:47:29;17.40;77.90
913;DHT22;443;51.448;7.028;2023-05-10T15:49:56;17.40;78.00
913;DHT22;443;51.448;7.028;2023-05-10T15:52:22;17.40;78.00
913;DHT22;443;51.448;7.028;2023-05-10T15:54:51;17.40;78.10
913;DHT22;443;51.448;7.028;2023-05-10T15:57:17;17.40;77.90
913;DHT22;443;51.448;7.028;2023-05-10T15:59:44;17.40;77.90
913;DHT22;443;51.448;7.028;2023-05-10T16:02:11;17.40;77.60
913;DHT22;443;51.448;7.028;2023-05-10T16:04:38;17.40;77.80
913;DHT22;443;51.448;7.028;2023-05-10T16:07:04;17.40;78.00
913;DHT22;443;51.448;7.028;2023-05-10T16:09:31;17.40;78.20
913;DHT22;443;51.448;7.028;2023-05-10T16:11:59;17.30;78.20
913;DHT22;443;51.448;7.028;2023-05-10T16:14:26;17.40;78.30
913;DHT22;443;51.448;7.028;2023-05-10T16:16:53;17.40;78.20
913;DHT22;443;51.448;7.028;2023-05-10T16:19:20;17.40;77.90
913;DHT22;443;51.448;7.028;2023-05-10T16:21:46;17.40;78.10
913;DHT22;443;51.448;7.028;2023-05-10T16:24:13;17.30;78.20
913;DHT22;443;51.448;7.028;2023-05-10T16:26:40;17.30;78.30
913;DHT22;443;51.448;7.028;2023-05-10T16:29:09;17.30;78.40
913;DHT22;443;51.448;7.028;2023-05-10T16:31:36;17.30;78.20
913;DHT22;443;51.448;7.028;2023-05-10T16:34:02;17.30;78.50
913;DHT22;443;51.448;7.028;2023-05-10T16:36:29;17.30;78.50
913;DHT22;443;51.448;7.028;2023-05-10T16:38:57;17.20;78.50
913;DHT22;443;51.448;7.028;2023-05-10T16:41:23;17.20;78.60
913;DHT22;443;51.448;7.028;2023-05-10T16:43:50;17.20;78.60
913;DHT22;443;51.448;7.028;2023-05-10T16:46:18;17.20;78.70